sensor_id;sensor_type;location;lat;lon;timestamp;P1;durP1;ratioP1;P2;durP2;ratioP2
54823;SDS011;40724;53.196;5.980;2023-04-08T00:01:14;5.60;;;3.95;;
54823;SDS011;40724;53.196;5.980;2023-04-08T00:03:40;6.07;;;4.47;;
54823;SDS011;40724;53.196;5.980;2023-04-08T00:06:06;6.90;;;4.20;;
54823;SDS011;40724;53.196;5.980;2023-04-08T00:08:33;8.77;;;4.72;;
54823;SDS011;40724;53.196;5.980;2023-04-08T00:10:59;6.47;;;4.70;;
54823;SDS011;40724;53.196;5.980;2023-04-08T00:13:25;6.30;;;4.80;;
54823;SDS011;40724;53.196;5.980;2023-04-08T00:15:51;7.90;;;5.40;;
54823;SDS011;40724;53.196;5.980;2023-04-08T00:18:17;6.60;;;4.78;;
54823;SDS011;40724;53.196;5.980;2023-04-08T00:20:43;6.75;;;4.80;;
54823;SDS011;40724;53.196;5.980;2023-04-08T00:23:10;6.60;;;4.45;;
54823;SDS011;40724;53.196;5.980;2023-04-08T00:25:36;7.80;;;4.38;;
54823;SDS011;40724;53.196;5.980;2023-04-08T00:28:02;8.30;;;4.75;;
54823;SDS011;40724;53.196;5.980;2023-04-08T00:30:28;6.78;;;4.70;;
54823;SDS011;40724;53.196;5.980;2023-04-08T00:32:55;6.50;;;4.68;;
54823;SDS011;40724;53.196;5.980;2023-04-08T00:35:21;6.40;;;4.65;;
54823;SDS011;40724;53.196;5.980;2023-04-08T00:37:48;7.13;;;4.78;;
54823;SDS011;40724;53.196;5.980;2023-04-08T00:40:15;9.55;;;5.07;;
54823;SDS011;40724;53.196;5.980;2023-04-08T00:42:41;13.00;;;5.55;;
54823;SDS011;40724;53.196;5.980;2023-04-08T00:45:07;8.60;;;5.55;;
54823;SDS011;40724;53.196;5.980;2023-04-08T00:47:34;8.27;;;4.90;;
54823;SDS011;40724;53.196;5.980;2023-04-08T00:50:01;7.80;;;6.10;;
54823;SDS011;40724;53.196;5.980;2023-04-08T00:52:28;9.40;;;6.50;;
54823;SDS011;40724;53.196;5.980;2023-04-08T00:54:54;9.55;;;5.90;;
54823;SDS011;40724;53.196;5.980;2023-04-08T00:57:21;9.15;;;6.25;;
54823;SDS011;40724;53.196;5.980;2023-04-08T00:59:48;9.32;;;5.82;;
54823;SDS011;40724;53.196;5.980;2023-04-08T01:05:03;9.52;;;6.35;;
54823;SDS011;40724;53.196;5.980;2023-04-08T01:07:31;10.65;;;6.90;;
54823;SDS011;40724;53.196;5.980;2023-04-08T01:09:58;12.38;;;7.28;;
54823;SDS011;40724;53.196;5.980;2023-04-08T01:12:30;8.93;;;6.82;;
54823;SDS011;40724;53.196;5.980;2023-04-08T01:15:02;12.75;;;7.40;;
54823;SDS011;40724;53.196;5.980;2023-04-08T01:17:29;11.02;;;7.32;;
54823;SDS011;40724;53.196;5.980;2023-04-08T01:19:56;10.75;;;7.68;;
54823;SDS011;40724;53.196;5.980;2023-04-08T01:25:05;12.52;;;8.20;;
54823;SDS011;40724;53.196;5.980;2023-04-08T01:27:33;11.07;;;6.80;;
54823;SDS011;40724;53.196;5.980;2023-04-08T01:30:01;11.60;;;7.63;;
54823;SDS011;40724;53.196;5.980;2023-04-08T01:32:28;11.40;;;7.90;;
54823;SDS011;40724;53.196;5.980;2023-04-08T01:34:55;10.88;;;7.82;;
54823;SDS011;40724;53.196;5.980;2023-04-08T01:37:22;11.98;;;8.05;;
54823;SDS011;40724;53.196;5.980;2023-04-08T01:39:48;12.75;;;8.23;;
54823;SDS011;40724;53.196;5.980;2023-04-08T01:42:14;12.43;;;7.78;;
54823;SDS011;40724;53.196;5.980;2023-04-08T01:44:41;11.90;;;8.80;;
54823;SDS011;40724;53.196;5.980;2023-04-08T01:47:09;11.05;;;8.73;;
54823;SDS011;40724;53.196;5.980;2023-04-08T01:49:35;11.18;;;8.52;;
54823;SDS011;40724;53.196;5.980;2023-04-08T01:52:02;11.95;;;7.93;;
54823;SDS011;40724;53.196;5.980;2023-04-08T01:54:28;13.10;;;7.90;;
54823;SDS011;40724;53.196;5.980;2023-04-08T01:56:55;12.55;;;8.75;;
54823;SDS011;40724;53.196;5.980;2023-04-08T01:59:21;13.63;;;8.43;;
54823;SDS011;40724;53.196;5.980;2023-04-08T02:01:49;17.45;;;12.02;;
54823;SDS011;40724;53.196;5.980;2023-04-08T02:04:16;14.13;;;9.43;;
54823;SDS011;40724;53.196;5.980;2023-04-08T02:06:42;16.13;;;9.13;;
54823;SDS011;40724;53.196;5.980;2023-04-08T02:09:08;15.30;;;9.77;;
54823;SDS011;40724;53.196;5.980;2023-04-08T02:11:35;15.00;;;9.02;;
54823;SDS011;40724;53.196;5.980;2023-04-08T02:14:01;12.80;;;8.75;;
54823;SDS011;40724;53.196;5.980;2023-04-08T02:19:17;13.95;;;9.65;;
54823;SDS011;40724;53.196;5.980;2023-04-08T02:21:45;14.98;;;9.13;;
54823;SDS011;40724;53.196;5.980;2023-04-08T02:24:12;19.77;;;9.85;;
54823;SDS011;40724;53.196;5.980;2023-04-08T02:26:38;13.73;;;9.52;;
54823;SDS011;40724;53.196;5.980;2023-04-08T02:29:05;15.30;;;10.20;;
54823;SDS011;40724;53.196;5.980;2023-04-08T02:31:32;14.20;;;9.82;;
54823;SDS011;40724;53.196;5.980;2023-04-08T02:33:59;19.17;;;9.85;;
54823;SDS011;40724;53.196;5.980;2023-04-08T02:36:25;14.75;;;10.10;;
54823;SDS011;40724;53.196;5.980;2023-04-08T02:38:52;16.10;;;10.40;;
54823;SDS011;40724;53.196;5.980;2023-04-08T02:41:18;14.70;;;9.65;;
54823;SDS011;40724;53.196;5.980;2023-04-08T02:43:45;15.80;;;10.20;;
54823;SDS011;40724;53.196;5.980;2023-04-08T02:46:12;15.65;;;10.25;;
54823;SDS011;40724;53.196;5.980;2023-04-08T02:48:38;12.95;;;9.80;;
54823;SDS011;40724;53.196;5.980;2023-04-08T02:51:04;12.95;;;9.55;;
54823;SDS011;40724;53.196;5.980;2023-04-08T02:53:30;15.05;;;10.52;;
54823;SDS011;40724;53.196;5.980;2023-04-08T02:55:56;16.77;;;10.05;;
54823;SDS011;40724;53.196;5.980;2023-04-08T02:58:22;15.75;;;11.38;;
54823;SDS011;40724;53.196;5.980;2023-04-08T03:00:48;15.98;;;11.45;;
54823;SDS011;40724;53.196;5.980;2023-04-08T03:03:14;15.73;;;11.07;;
54823;SDS011;40724;53.196;5.980;2023-04-08T03:05:41;14.40;;;10.85;;
54823;SDS011;40724;53.196;5.980;2023-04-08T03:08:07;18.60;;;11.38;;
54823;SDS011;40724;53.196;5.980;2023-04-08T03:10:33;18.13;;;12.23;;
54823;SDS011;40724;53.196;5.980;2023-04-08T03:12:59;16.67;;;11.13;;
54823;SDS011;40724;53.196;5.980;2023-04-08T03:15:25;17.88;;;12.75;;
54823;SDS011;40724;53.196;5.980;2023-04-08T03:17:51;19.88;;;13.55;;
54823;SDS011;40724;53.196;5.980;2023-04-08T03:20:18;16.42;;;12.00;;
54823;SDS011;40724;53.196;5.980;2023-04-08T03:22:44;17.38;;;11.77;;
54823;SDS011;40724;53.196;5.980;2023-04-08T03:25:10;17.05;;;10.93;;
54823;SDS011;40724;53.196;5.980;2023-04-08T03:27:36;18.48;;;12.20;;
54823;SDS011;40724;53.196;5.980;2023-04-08T03:30:02;15.90;;;11.77;;
54823;SDS011;40724;53.196;5.980;2023-04-08T03:32:28;15.27;;;10.98;;
54823;SDS011;40724;53.196;5.980;2023-04-08T03:34:54;18.35;;;12.98;;
54823;SDS011;40724;53.196;5.980;2023-04-08T03:37:21;13.70;;;11.45;;
54823;SDS011;40724;53.196;5.980;2023-04-08T03:39:47;18.48;;;13.13;;
54823;SDS011;40724;53.196;5.980;2023-04-08T03:42:13;20.20;;;13.13;;
54823;SDS011;40724;53.196;5.980;2023-04-08T03:44:39;19.77;;;13.30;;
54823;SDS011;40724;53.196;5.980;2023-04-08T03:47:05;15.80;;;11.30;;
54823;SDS011;40724;53.196;5.980;2023-04-08T03:49:31;17.75;;;12.60;;
54823;SDS011;40724;53.196;5.980;2023-04-08T03:51:57;20.17;;;14.63;;
54823;SDS011;40724;53.196;5.980;2023-04-08T03:54:24;19.83;;;13.15;;
54823;SDS011;40724;53.196;5.980;2023-04-08T03:56:50;18.40;;;13.85;;
54823;SDS011;40724;53.196;5.980;2023-04-08T03:59:16;18.70;;;13.70;;
54823;SDS011;40724;53.196;5.980;2023-04-08T04:01:42;24.50;;;14.63;;
54823;SDS011;40724;53.196;5.980;2023-04-08T04:04:08;18.85;;;13.48;;
54823;SDS011;40724;53.196;5.980;2023-04-08T04:06:34;21.40;;;14.18;;
54823;SDS011;40724;53.196;5.980;2023-04-08T04:09:01;21.75;;;14.98;;
54823;SDS011;40724;53.196;5.980;2023-04-08T04:11:28;19.38;;;13.50;;
54823;SDS011;40724;53.196;5.980;2023-04-08T04:13:54;20.23;;;14.27;;
54823;SDS011;40724;53.196;5.980;2023-04-08T04:16:20;20.23;;;13.98;;
54823;SDS011;40724;53.196;5.980;2023-04-08T04:18:46;22.80;;;16.02;;
54823;SDS011;40724;53.196;5.980;2023-04-08T04:21:12;21.60;;;13.68;;
54823;SDS011;40724;53.196;5.980;2023-04-08T04:23:38;21.90;;;15.30;;
54823;SDS011;40724;53.196;5.980;2023-04-08T04:26:08;24.33;;;14.82;;
54823;SDS011;40724;53.196;5.980;2023-04-08T04:28:34;22.17;;;14.70;;
54823;SDS011;40724;53.196;5.980;2023-04-08T04:31:00;20.95;;;15.55;;
54823;SDS011;40724;53.196;5.980;2023-04-08T04:33:27;19.80;;;14.40;;
54823;SDS011;40724;53.196;5.980;2023-04-08T04:35:53;21.30;;;15.38;;
54823;SDS011;40724;53.196;5.980;2023-04-08T04:38:20;20.23;;;14.30;;
54823;SDS011;40724;53.196;5.980;2023-04-08T04:40:46;20.40;;;13.75;;
54823;SDS011;40724;53.196;5.980;2023-04-08T04:43:12;22.83;;;14.90;;
54823;SDS011;40724;53.196;5.980;2023-04-08T04:45:38;25.05;;;15.85;;
54823;SDS011;40724;53.196;5.980;2023-04-08T04:48:04;21.33;;;14.35;;
54823;SDS011;40724;53.196;5.980;2023-04-08T04:50:31;21.02;;;14.07;;
54823;SDS011;40724;53.196;5.980;2023-04-08T04:52:57;17.83;;;14.60;;
54823;SDS011;40724;53.196;5.980;2023-04-08T04:55:23;22.20;;;15.18;;
54823;SDS011;40724;53.196;5.980;2023-04-08T04:57:49;21.10;;;14.55;;
54823;SDS011;40724;53.196;5.980;2023-04-08T05:00:16;23.10;;;15.32;;
54823;SDS011;40724;53.196;5.980;2023-04-08T05:02:42;21.83;;;16.17;;
54823;SDS011;40724;53.196;5.980;2023-04-08T05:05:08;25.23;;;15.98;;
54823;SDS011;40724;53.196;5.980;2023-04-08T05:07:35;22.00;;;14.63;;
54823;SDS011;40724;53.196;5.980;2023-04-08T05:10:01;24.27;;;16.00;;
54823;SDS011;40724;53.196;5.980;2023-04-08T05:12:28;22.85;;;15.77;;
54823;SDS011;40724;53.196;5.980;2023-04-08T05:14:56;23.90;;;16.25;;
54823;SDS011;40724;53.196;5.980;2023-04-08T05:17:23;24.05;;;15.85;;
54823;SDS011;40724;53.196;5.980;2023-04-08T05:19:50;24.90;;;16.65;;
54823;SDS011;40724;53.196;5.980;2023-04-08T05:22:17;22.20;;;16.02;;
54823;SDS011;40724;53.196;5.980;2023-04-08T05:24:43;25.55;;;15.93;;
54823;SDS011;40724;53.196;5.980;2023-04-08T05:27:10;22.55;;;16.10;;
54823;SDS011;40724;53.196;5.980;2023-04-08T05:29:36;25.70;;;16.23;;
54823;SDS011;40724;53.196;5.980;2023-04-08T05:32:02;22.52;;;15.07;;
54823;SDS011;40724;53.196;5.980;2023-04-08T05:34:30;23.25;;;16.42;;
54823;SDS011;40724;53.196;5.980;2023-04-08T05:36:56;24.38;;;16.60;;
54823;SDS011;40724;53.196;5.980;2023-04-08T05:39:22;22.33;;;16.00;;
54823;SDS011;40724;53.196;5.980;2023-04-08T05:41:48;24.63;;;17.27;;
54823;SDS011;40724;53.196;5.980;2023-04-08T05:44:14;22.88;;;15.20;;
54823;SDS011;40724;53.196;5.980;2023-04-08T05:46:40;26.45;;;15.32;;
54823;SDS011;40724;53.196;5.980;2023-04-08T05:49:06;24.42;;;17.20;;
54823;SDS011;40724;53.196;5.980;2023-04-08T05:51:32;28.27;;;17.80;;
54823;SDS011;40724;53.196;5.980;2023-04-08T05:53:59;26.13;;;16.95;;
54823;SDS011;40724;53.196;5.980;2023-04-08T05:56:25;23.55;;;15.10;;
54823;SDS011;40724;53.196;5.980;2023-04-08T05:58:51;23.60;;;16.67;;
54823;SDS011;40724;53.196;5.980;2023-04-08T06:01:17;23.70;;;16.02;;
54823;SDS011;40724;53.196;5.980;2023-04-08T06:03:43;22.13;;;15.48;;
54823;SDS011;40724;53.196;5.980;2023-04-08T06:06:10;23.88;;;15.93;;
54823;SDS011;40724;53.196;5.980;2023-04-08T06:08:36;21.42;;;15.82;;
54823;SDS011;40724;53.196;5.980;2023-04-08T06:11:02;27.58;;;17.00;;
54823;SDS011;40724;53.196;5.980;2023-04-08T06:13:29;25.58;;;17.40;;
54823;SDS011;40724;53.196;5.980;2023-04-08T06:15:55;26.02;;;16.70;;
54823;SDS011;40724;53.196;5.980;2023-04-08T06:18:22;24.52;;;15.02;;
54823;SDS011;40724;53.196;5.980;2023-04-08T06:20:48;26.23;;;15.98;;
54823;SDS011;40724;53.196;5.980;2023-04-08T06:23:15;20.58;;;15.43;;
54823;SDS011;40724;53.196;5.980;2023-04-08T06:25:41;21.83;;;15.93;;
54823;SDS011;40724;53.196;5.980;2023-04-08T06:28:07;26.10;;;17.00;;
54823;SDS011;40724;53.196;5.980;2023-04-08T06:30:33;25.45;;;15.65;;
54823;SDS011;40724;53.196;5.980;2023-04-08T06:32:59;22.80;;;16.60;;
54823;SDS011;40724;53.196;5.980;2023-04-08T06:35:26;31.08;;;18.08;;
54823;SDS011;40724;53.196;5.980;2023-04-08T06:37:52;22.55;;;14.70;;
54823;SDS011;40724;53.196;5.980;2023-04-08T06:40:18;22.75;;;15.52;;
54823;SDS011;40724;53.196;5.980;2023-04-08T06:42:44;24.70;;;17.92;;
54823;SDS011;40724;53.196;5.980;2023-04-08T06:45:10;21.67;;;15.43;;
54823;SDS011;40724;53.196;5.980;2023-04-08T06:47:36;20.92;;;15.90;;
54823;SDS011;40724;53.196;5.980;2023-04-08T06:50:02;26.10;;;17.23;;
54823;SDS011;40724;53.196;5.980;2023-04-08T06:52:29;25.52;;;17.83;;
54823;SDS011;40724;53.196;5.980;2023-04-08T06:54:55;25.52;;;17.73;;
54823;SDS011;40724;53.196;5.980;2023-04-08T06:57:21;22.67;;;16.13;;
54823;SDS011;40724;53.196;5.980;2023-04-08T06:59:47;27.70;;;18.08;;
54823;SDS011;40724;53.196;5.980;2023-04-08T07:02:13;26.77;;;16.65;;
54823;SDS011;40724;53.196;5.980;2023-04-08T07:04:39;24.15;;;17.38;;
54823;SDS011;40724;53.196;5.980;2023-04-08T07:07:06;25.98;;;15.63;;
54823;SDS011;40724;53.196;5.980;2023-04-08T07:09:32;26.40;;;17.38;;
54823;SDS011;40724;53.196;5.980;2023-04-08T07:11:58;26.38;;;17.98;;
54823;SDS011;40724;53.196;5.980;2023-04-08T07:14:24;23.67;;;17.60;;
54823;SDS011;40724;53.196;5.980;2023-04-08T07:16:50;22.75;;;15.30;;
54823;SDS011;40724;53.196;5.980;2023-04-08T07:19:16;29.10;;;18.45;;
54823;SDS011;40724;53.196;5.980;2023-04-08T07:21:43;26.10;;;15.95;;
54823;SDS011;40724;53.196;5.980;2023-04-08T07:24:09;24.73;;;17.23;;
54823;SDS011;40724;53.196;5.980;2023-04-08T07:26:36;25.27;;;17.17;;
54823;SDS011;40724;53.196;5.980;2023-04-08T07:29:02;27.73;;;16.77;;
54823;SDS011;40724;53.196;5.980;2023-04-08T07:31:29;25.02;;;16.23;;
54823;SDS011;40724;53.196;5.980;2023-04-08T07:33:55;25.90;;;17.50;;
54823;SDS011;40724;53.196;5.980;2023-04-08T07:36:21;28.02;;;16.48;;
54823;SDS011;40724;53.196;5.980;2023-04-08T07:38:47;26.65;;;17.38;;
54823;SDS011;40724;53.196;5.980;2023-04-08T07:41:13;25.88;;;17.10;;
54823;SDS011;40724;53.196;5.980;2023-04-08T07:43:39;23.52;;;15.40;;
54823;SDS011;40724;53.196;5.980;2023-04-08T07:46:06;30.55;;;15.80;;
54823;SDS011;40724;53.196;5.980;2023-04-08T07:48:33;27.48;;;16.90;;
54823;SDS011;40724;53.196;5.980;2023-04-08T07:51:06;22.88;;;16.55;;
54823;SDS011;40724;53.196;5.980;2023-04-08T07:55:59;19.88;;;13.60;;
54823;SDS011;40724;53.196;5.980;2023-04-08T07:58:25;21.52;;;15.20;;
54823;SDS011;40724;53.196;5.980;2023-04-08T08:00:52;22.52;;;15.57;;
54823;SDS011;40724;53.196;5.980;2023-04-08T08:03:18;19.40;;;14.23;;
54823;SDS011;40724;53.196;5.980;2023-04-08T08:05:44;20.67;;;13.20;;
54823;SDS011;40724;53.196;5.980;2023-04-08T08:08:10;18.45;;;13.40;;
54823;SDS011;40724;53.196;5.980;2023-04-08T08:10:37;20.30;;;13.48;;
54823;SDS011;40724;53.196;5.980;2023-04-08T08:13:04;17.70;;;12.18;;
54823;SDS011;40724;53.196;5.980;2023-04-08T08:15:30;17.55;;;11.82;;
54823;SDS011;40724;53.196;5.980;2023-04-08T08:17:56;22.23;;;12.63;;
54823;SDS011;40724;53.196;5.980;2023-04-08T08:20:22;18.30;;;11.00;;
54823;SDS011;40724;53.196;5.980;2023-04-08T08:22:48;18.05;;;12.00;;
54823;SDS011;40724;53.196;5.980;2023-04-08T08:25:15;16.08;;;11.43;;
54823;SDS011;40724;53.196;5.980;2023-04-08T08:27:41;17.98;;;11.18;;
54823;SDS011;40724;53.196;5.980;2023-04-08T08:30:08;18.25;;;11.50;;
54823;SDS011;40724;53.196;5.980;2023-04-08T08:32:34;13.00;;;9.57;;
54823;SDS011;40724;53.196;5.980;2023-04-08T08:35:01;15.90;;;8.40;;
54823;SDS011;40724;53.196;5.980;2023-04-08T08:37:27;15.40;;;8.35;;
54823;SDS011;40724;53.196;5.980;2023-04-08T08:39:53;12.50;;;9.07;;
54823;SDS011;40724;53.196;5.980;2023-04-08T08:44:46;11.32;;;8.40;;
54823;SDS011;40724;53.196;5.980;2023-04-08T08:47:12;12.00;;;8.23;;
54823;SDS011;40724;53.196;5.980;2023-04-08T08:49:38;11.70;;;8.60;;
54823;SDS011;40724;53.196;5.980;2023-04-08T08:52:05;11.80;;;8.23;;
54823;SDS011;40724;53.196;5.980;2023-04-08T08:54:31;12.73;;;8.20;;
54823;SDS011;40724;53.196;5.980;2023-04-08T08:56:57;11.48;;;8.38;;
54823;SDS011;40724;53.196;5.980;2023-04-08T08:59:23;16.70;;;8.93;;
54823;SDS011;40724;53.196;5.980;2023-04-08T09:01:49;11.68;;;8.20;;
54823;SDS011;40724;53.196;5.980;2023-04-08T09:04:16;12.98;;;8.60;;
54823;SDS011;40724;53.196;5.980;2023-04-08T09:06:44;20.08;;;11.10;;
54823;SDS011;40724;53.196;5.980;2023-04-08T09:09:11;13.60;;;9.10;;
54823;SDS011;40724;53.196;5.980;2023-04-08T09:11:38;15.88;;;9.20;;
54823;SDS011;40724;53.196;5.980;2023-04-08T09:14:24;15.48;;;9.70;;
54823;SDS011;40724;53.196;5.980;2023-04-08T09:16:50;14.90;;;10.10;;
54823;SDS011;40724;53.196;5.980;2023-04-08T09:19:17;14.23;;;9.23;;
54823;SDS011;40724;53.196;5.980;2023-04-08T09:21:43;14.32;;;9.15;;
54823;SDS011;40724;53.196;5.980;2023-04-08T09:24:09;13.75;;;10.20;;
54823;SDS011;40724;53.196;5.980;2023-04-08T09:26:52;16.17;;;10.10;;
54823;SDS011;40724;53.196;5.980;2023-04-08T09:29:18;14.40;;;9.98;;
54823;SDS011;40724;53.196;5.980;2023-04-08T09:31:48;13.73;;;9.35;;
54823;SDS011;40724;53.196;5.980;2023-04-08T09:34:18;13.55;;;9.25;;
54823;SDS011;40724;53.196;5.980;2023-04-08T09:36:45;15.63;;;10.63;;
54823;SDS011;40724;53.196;5.980;2023-04-08T09:39:13;13.57;;;10.10;;
54823;SDS011;40724;53.196;5.980;2023-04-08T09:41:39;12.85;;;9.93;;
54823;SDS011;40724;53.196;5.980;2023-04-08T09:44:07;15.35;;;10.27;;
54823;SDS011;40724;53.196;5.980;2023-04-08T09:49:28;16.33;;;9.65;;
54823;SDS011;40724;53.196;5.980;2023-04-08T09:54:47;16.80;;;10.55;;
54823;SDS011;40724;53.196;5.980;2023-04-08T10:00:24;14.80;;;9.43;;
54823;SDS011;40724;53.196;5.980;2023-04-08T10:05:49;15.10;;;10.80;;
54823;SDS011;40724;53.196;5.980;2023-04-08T10:08:17;18.75;;;10.95;;
54823;SDS011;40724;53.196;5.980;2023-04-08T10:10:44;18.00;;;11.30;;
54823;SDS011;40724;53.196;5.980;2023-04-08T10:13:10;14.85;;;11.07;;
54823;SDS011;40724;53.196;5.980;2023-04-08T10:15:36;12.40;;;9.57;;
54823;SDS011;40724;53.196;5.980;2023-04-08T10:23:03;14.60;;;10.18;;
54823;SDS011;40724;53.196;5.980;2023-04-08T10:27:59;16.58;;;11.43;;
54823;SDS011;40724;53.196;5.980;2023-04-08T10:32:57;15.45;;;10.48;;
54823;SDS011;40724;53.196;5.980;2023-04-08T10:35:30;16.77;;;11.30;;
54823;SDS011;40724;53.196;5.980;2023-04-08T10:37:57;17.38;;;10.98;;
54823;SDS011;40724;53.196;5.980;2023-04-08T10:40:23;14.00;;;9.95;;
54823;SDS011;40724;53.196;5.980;2023-04-08T10:42:56;16.30;;;11.18;;
54823;SDS011;40724;53.196;5.980;2023-04-08T10:45:23;16.63;;;10.68;;
54823;SDS011;40724;53.196;5.980;2023-04-08T10:47:49;15.88;;;11.50;;
54823;SDS011;40724;53.196;5.980;2023-04-08T10:50:16;13.10;;;9.10;;
54823;SDS011;40724;53.196;5.980;2023-04-08T10:52:49;15.13;;;10.65;;
54823;SDS011;40724;53.196;5.980;2023-04-08T10:55:27;16.27;;;10.68;;
54823;SDS011;40724;53.196;5.980;2023-04-08T10:57:54;16.63;;;11.00;;
54823;SDS011;40724;53.196;5.980;2023-04-08T11:00:33;15.23;;;9.95;;
54823;SDS011;40724;53.196;5.980;2023-04-08T11:03:09;16.52;;;10.30;;
54823;SDS011;40724;53.196;5.980;2023-04-08T11:05:36;20.30;;;11.23;;
54823;SDS011;40724;53.196;5.980;2023-04-08T11:08:03;21.67;;;10.48;;
54823;SDS011;40724;53.196;5.980;2023-04-08T11:10:29;18.00;;;10.15;;
54823;SDS011;40724;53.196;5.980;2023-04-08T11:12:56;14.38;;;10.07;;
54823;SDS011;40724;53.196;5.980;2023-04-08T11:15:23;14.45;;;9.65;;
54823;SDS011;40724;53.196;5.980;2023-04-08T11:17:49;13.43;;;10.15;;
54823;SDS011;40724;53.196;5.980;2023-04-08T11:20:16;19.50;;;10.95;;
54823;SDS011;40724;53.196;5.980;2023-04-08T11:22:46;22.02;;;11.10;;
54823;SDS011;40724;53.196;5.980;2023-04-08T11:25:12;16.90;;;11.07;;
54823;SDS011;40724;53.196;5.980;2023-04-08T11:27:38;13.95;;;8.95;;
54823;SDS011;40724;53.196;5.980;2023-04-08T11:30:05;15.40;;;10.15;;
54823;SDS011;40724;53.196;5.980;2023-04-08T11:32:33;14.77;;;10.73;;
54823;SDS011;40724;53.196;5.980;2023-04-08T11:34:59;12.85;;;9.38;;
54823;SDS011;40724;53.196;5.980;2023-04-08T11:37:32;13.80;;;10.45;;
54823;SDS011;40724;53.196;5.980;2023-04-08T11:40:01;12.60;;;9.48;;
54823;SDS011;40724;53.196;5.980;2023-04-08T11:42:27;13.63;;;9.95;;
54823;SDS011;40724;53.196;5.980;2023-04-08T11:44:54;18.05;;;11.23;;
54823;SDS011;40724;53.196;5.980;2023-04-08T11:47:20;17.83;;;11.68;;
54823;SDS011;40724;53.196;5.980;2023-04-08T11:49:46;18.80;;;11.35;;
54823;SDS011;40724;53.196;5.980;2023-04-08T11:52:12;18.70;;;11.75;;
54823;SDS011;40724;53.196;5.980;2023-04-08T11:54:40;17.50;;;10.93;;
54823;SDS011;40724;53.196;5.980;2023-04-08T11:57:07;25.58;;;13.27;;
54823;SDS011;40724;53.196;5.980;2023-04-08T11:59:36;22.23;;;12.85;;
54823;SDS011;40724;53.196;5.980;2023-04-08T12:02:02;20.23;;;13.32;;
54823;SDS011;40724;53.196;5.980;2023-04-08T12:04:28;19.85;;;12.85;;
54823;SDS011;40724;53.196;5.980;2023-04-08T12:06:55;22.05;;;13.70;;
54823;SDS011;40724;53.196;5.980;2023-04-08T12:09:21;20.60;;;14.63;;
54823;SDS011;40724;53.196;5.980;2023-04-08T12:11:47;26.20;;;15.63;;
54823;SDS011;40724;53.196;5.980;2023-04-08T12:14:13;23.15;;;14.80;;
54823;SDS011;40724;53.196;5.980;2023-04-08T12:16:40;25.58;;;16.70;;
54823;SDS011;40724;53.196;5.980;2023-04-08T12:19:06;28.42;;;17.73;;
54823;SDS011;40724;53.196;5.980;2023-04-08T12:21:32;26.35;;;16.33;;
54823;SDS011;40724;53.196;5.980;2023-04-08T12:23:58;25.00;;;15.10;;
54823;SDS011;40724;53.196;5.980;2023-04-08T12:26:25;24.67;;;14.10;;
54823;SDS011;40724;53.196;5.980;2023-04-08T12:28:51;23.63;;;15.50;;
54823;SDS011;40724;53.196;5.980;2023-04-08T12:31:17;22.95;;;15.52;;
54823;SDS011;40724;53.196;5.980;2023-04-08T12:33:44;25.27;;;16.15;;
54823;SDS011;40724;53.196;5.980;2023-04-08T12:36:10;25.58;;;16.10;;
54823;SDS011;40724;53.196;5.980;2023-04-08T12:38:36;24.10;;;15.48;;
54823;SDS011;40724;53.196;5.980;2023-04-08T12:41:02;22.05;;;14.05;;
54823;SDS011;40724;53.196;5.980;2023-04-08T12:43:28;24.30;;;15.30;;
54823;SDS011;40724;53.196;5.980;2023-04-08T12:45:56;23.05;;;15.93;;
54823;SDS011;40724;53.196;5.980;2023-04-08T12:48:22;21.38;;;13.55;;
54823;SDS011;40724;53.196;5.980;2023-04-08T12:50:49;22.83;;;15.35;;
54823;SDS011;40724;53.196;5.980;2023-04-08T12:53:15;22.83;;;15.35;;
54823;SDS011;40724;53.196;5.980;2023-04-08T12:55:41;19.67;;;13.43;;
54823;SDS011;40724;53.196;5.980;2023-04-08T12:58:07;26.85;;;15.93;;
54823;SDS011;40724;53.196;5.980;2023-04-08T13:00:33;19.95;;;13.88;;
54823;SDS011;40724;53.196;5.980;2023-04-08T13:03:02;23.90;;;14.35;;
54823;SDS011;40724;53.196;5.980;2023-04-08T13:05:28;27.85;;;15.52;;
54823;SDS011;40724;53.196;5.980;2023-04-08T13:07:54;21.92;;;15.02;;
54823;SDS011;40724;53.196;5.980;2023-04-08T13:10:20;22.52;;;15.25;;
54823;SDS011;40724;53.196;5.980;2023-04-08T13:12:46;21.40;;;14.82;;
54823;SDS011;40724;53.196;5.980;2023-04-08T13:15:11;20.63;;;14.05;;
54823;SDS011;40724;53.196;5.980;2023-04-08T13:17:37;22.45;;;14.25;;
54823;SDS011;40724;53.196;5.980;2023-04-08T13:20:03;23.10;;;14.60;;
54823;SDS011;40724;53.196;5.980;2023-04-08T13:22:30;21.65;;;14.05;;
54823;SDS011;40724;53.196;5.980;2023-04-08T13:24:57;21.40;;;13.95;;
54823;SDS011;40724;53.196;5.980;2023-04-08T13:27:23;21.35;;;14.25;;
54823;SDS011;40724;53.196;5.980;2023-04-08T13:29:49;22.65;;;14.73;;
54823;SDS011;40724;53.196;5.980;2023-04-08T13:32:15;20.23;;;12.73;;
54823;SDS011;40724;53.196;5.980;2023-04-08T13:34:40;19.88;;;13.65;;
54823;SDS011;40724;53.196;5.980;2023-04-08T13:37:06;20.27;;;13.40;;
54823;SDS011;40724;53.196;5.980;2023-04-08T13:39:32;24.55;;;13.77;;
54823;SDS011;40724;53.196;5.980;2023-04-08T13:41:58;20.15;;;12.93;;
54823;SDS011;40724;53.196;5.980;2023-04-08T13:44:23;22.83;;;12.95;;
54823;SDS011;40724;53.196;5.980;2023-04-08T13:46:49;14.57;;;11.38;;
54823;SDS011;40724;53.196;5.980;2023-04-08T13:49:15;22.33;;;14.48;;
54823;SDS011;40724;53.196;5.980;2023-04-08T13:51:41;20.83;;;13.88;;
54823;SDS011;40724;53.196;5.980;2023-04-08T13:54:07;22.23;;;12.82;;
54823;SDS011;40724;53.196;5.980;2023-04-08T13:56:32;20.58;;;12.43;;
54823;SDS011;40724;53.196;5.980;2023-04-08T13:58:58;22.52;;;13.23;;
54823;SDS011;40724;53.196;5.980;2023-04-08T14:01:24;15.88;;;11.50;;
54823;SDS011;40724;53.196;5.980;2023-04-08T14:03:50;19.90;;;13.25;;
54823;SDS011;40724;53.196;5.980;2023-04-08T14:06:15;19.60;;;12.52;;
54823;SDS011;40724;53.196;5.980;2023-04-08T14:08:41;18.20;;;11.98;;
54823;SDS011;40724;53.196;5.980;2023-04-08T14:11:07;18.63;;;12.80;;
54823;SDS011;40724;53.196;5.980;2023-04-08T14:13:33;17.70;;;12.07;;
54823;SDS011;40724;53.196;5.980;2023-04-08T14:15:59;18.10;;;11.35;;
54823;SDS011;40724;53.196;5.980;2023-04-08T14:18:26;19.55;;;12.30;;
54823;SDS011;40724;53.196;5.980;2023-04-08T14:20:52;17.08;;;11.65;;
54823;SDS011;40724;53.196;5.980;2023-04-08T14:23:19;15.85;;;10.02;;
54823;SDS011;40724;53.196;5.980;2023-04-08T14:25:45;17.90;;;11.38;;
54823;SDS011;40724;53.196;5.980;2023-04-08T14:28:11;19.45;;;11.15;;
54823;SDS011;40724;53.196;5.980;2023-04-08T14:30:36;17.77;;;11.38;;
54823;SDS011;40724;53.196;5.980;2023-04-08T14:33:02;17.20;;;11.27;;
54823;SDS011;40724;53.196;5.980;2023-04-08T14:35:29;15.35;;;10.02;;
54823;SDS011;40724;53.196;5.980;2023-04-08T14:37:55;12.75;;;10.80;;
54823;SDS011;40724;53.196;5.980;2023-04-08T14:40:21;14.13;;;10.23;;
54823;SDS011;40724;53.196;5.980;2023-04-08T14:42:47;15.75;;;10.50;;
54823;SDS011;40724;53.196;5.980;2023-04-08T14:45:14;15.77;;;10.15;;
54823;SDS011;40724;53.196;5.980;2023-04-08T14:47:40;14.25;;;10.57;;
54823;SDS011;40724;53.196;5.980;2023-04-08T14:50:06;17.70;;;10.77;;
54823;SDS011;40724;53.196;5.980;2023-04-08T14:52:32;13.70;;;10.38;;
54823;SDS011;40724;53.196;5.980;2023-04-08T14:54:58;16.08;;;10.40;;
54823;SDS011;40724;53.196;5.980;2023-04-08T14:57:24;18.80;;;11.05;;